sensor_id;sensor_type;location;lat;lon;timestamp;P1;P2;P0
85896;PMS5003;76442;52.412;16.940;2024-02-28T00:10:09;38.10080404596623;34.78769065066482;18.22212367415776
85896;PMS5003;76442;52.412;16.940;2024-02-28T00:25:09;33.75790323194542;32.111176245021255;19.760723843090002
85896;PMS5003;76442;52.412;16.940;2024-02-28T00:40:09;37.80025486383107;31.226297496208275;17.256638090009837
85896;PMS5003;76442;52.412;16.940;2024-02-28T00:55:09;37.517821325668216;35.88661170281308;17.94330585140654
85896;PMS5003;76442;52.412;16.940;2024-02-28T01:10:10;29.163301619319025;25.92293477272802;16.20183423295501
85896;PMS5003;76442;52.412;16.940;2024-02-28T01:25:09;34.06057997186901;34.06057997186901;14.597391416515292
85896;PMS5003;76442;52.412;16.940;2024-02-28T01:40:09;36.4462298956154;29.156983916492322;14.578491958246161
85896;PMS5003;76442;52.412;16.940;2024-02-28T01:55:10;27.61419488881775;27.61419488881775;12.994915241796587
85896;PMS5003;76442;52.412;16.940;2024-02-28T02:10:09;26.853147246524248;26.853147246524248;12.205976021147386
85896;PMS5003;76442;52.412;16.940;2024-02-28T02:25:09;23.56330868844267;23.56330868844267;12.18791828712552
85896;PMS5003;76442;52.412;16.940;2024-02-28T04:15:09;15.744875479175532;15.744875479175532;4.72346264375266
85896;PMS5003;76442;52.412;16.940;2024-02-28T04:30:09;16.62074592526797;16.62074592526797;8.706105008473699
85896;PMS5003;76442;52.412;16.940;2024-02-28T04:50:09;19.272185763042426;12.334198888347153;6.1670994441735765
85896;PMS5003;76442;52.412;16.940;2024-02-28T05:05:09;14.883085310458144;14.883085310458144;7.833202794977971
85896;PMS5003;76442;52.412;16.940;2024-02-28T05:20:09;17.332787614648375;17.332787614648375;9.454247789808203
85896;PMS5003;76442;52.412;16.940;2024-02-28T05:40:09;17.481245319772803;15.892041199793457;5.56221441992771
85896;PMS5003;76442;52.412;16.940;2024-02-28T05:55:09;23.154621182044878;18.36400990300111;5.589046492217729
85896;PMS5003;76442;52.412;16.940;2024-02-28T06:15:09;16.083843048230268;16.083843048230268;5.629345066880594
85896;PMS5003;76442;52.412;16.940;2024-02-28T06:30:09;21.396196687736875;16.641486312684236;6.339613833403519
85896;PMS5003;76442;52.412;16.940;2024-02-28T06:45:09;12.054666217806837;12.054666217806837;4.821866487122735
85896;PMS5003;76442;52.412;16.940;2024-02-28T07:00:09;16.130866491902598;16.130866491902598;7.258889921356169
85896;PMS5003;76442;52.412;16.940;2024-02-28T07:15:09;15.46415608973387;15.46415608973387;8.139029520912564
85896;PMS5003;76442;52.412;16.940;2024-02-28T07:30:09;14.720215017070155;14.720215017070155;5.724528062193949
85896;PMS5003;76442;52.412;16.940;2024-02-28T07:45:09;26.153223328473604;22.884070412414406;9.807458748177602
85896;PMS5003;76442;52.412;16.940;2024-02-28T08:05:10;17.924636721485946;17.924636721485946;8.147562146129975
85896;PMS5003;76442;52.412;16.940;2024-02-28T08:20:10;22.23252172053049;17.468409923273956;7.146167695884801
85896;PMS5003;76442;52.412;16.940;2024-02-28T08:35:09;16.591479160066612;16.591479160066612;8.69077479813013
85896;PMS5003;76442;52.412;16.940;2024-02-28T08:50:10;11.839023447013046;11.839023447013046;5.524877608606088
85896;PMS5003;76442;52.412;16.940;2024-02-28T09:10:09;12.143469544971122;12.143469544971122;6.4765170906512655
85896;PMS5003;76442;52.412;16.940;2024-02-28T09:25:09;19.772301556842987;16.476917964035824;9.062304880219703
85896;PMS5003;76442;52.412;16.940;2024-02-28T09:40:09;12.374486652692092;9.899589322153673;4.949794661076837
85896;PMS5003;76442;52.412;16.940;2024-02-28T15:10:09;48.0403583793479;42.81858029463617;13.576623020250493
85896;PMS5003;76442;52.412;16.940;2024-02-28T15:30:09;24.065154744739925;24.065154744739925;8.663455708106373
85896;PMS5003;76442;52.412;16.940;2024-02-28T15:45:09;27.63259967526232;22.868358351941232;9.52848264664218
85896;PMS5003;76442;52.412;16.940;2024-02-28T16:00:09;22.36432104501976;15.841394073555664;6.522926971464097
85896;PMS5003;76442;52.412;16.940;2024-02-28T16:15:09;30.486986859686063;25.867746426400295;8.31463277991438
85896;PMS5003;76442;52.412;16.940;2024-02-28T16:30:09;30.875946093982765;22.70290153969321;9.989276677465012
85896;PMS5003;76442;52.412;16.940;2024-02-28T16:45:09;33.955096924173496;25.019545102022576;10.722662186581104
85896;PMS5003;76442;52.412;16.940;2024-02-28T17:00:09;25.7618588846574;11.548419500018834;4.4416998076995515
85896;PMS5003;76442;52.412;16.940;2024-02-28T17:15:09;23.034574303700342;15.061067813957916;4.429725827634681
85896;PMS5003;76442;52.412;16.940;2024-02-28T17:30:09;31.602983588504248;26.335819657086876;8.778606552362291
85896;PMS5003;76442;52.412;16.940;2024-02-28T17:45:09;23.736274514373225;19.340668122822628;8.791212783101194
85896;PMS5003;76442;52.412;16.940;2024-02-28T18:05:09;28.150117300634566;21.112587975475925;5.278146993868981
85896;PMS5003;76442;52.412;16.940;2024-02-28T18:20:09;25.007791240905355;16.0764372262963;7.145083211687245
85896;PMS5003;76442;52.412;16.940;2024-02-28T18:35:09;39.489663886819514;24.232293748730157;8.974923610640799
85896;PMS5003;76442;52.412;16.940;2024-02-28T18:50:09;30.586602424141667;21.84757316010119;7.865126337636429
85896;PMS5003;76442;52.412;16.940;2024-02-28T19:05:09;35.683255770528724;16.949546491001144;4.4604069713160905
85896;PMS5003;76442;52.412;16.940;2024-02-28T19:20:09;42.799581808919285;33.88300226539444;9.808237497877338
85896;PMS5003;76442;52.412;16.940;2024-02-28T19:35:09;25.808653032676695;16.01916395131657;4.449767764254602
85896;PMS5003;76442;52.412;16.940;2024-02-28T19:50:09;30.476306769695487;21.512687131549754;6.274533746702012
85896;PMS5003;76442;52.412;16.940;2024-02-28T20:05:09;25.90092664236626;16.969572627757206;5.358812408765433
85896;PMS5003;76442;52.412;16.940;2024-02-28T20:20:09;31.871056757986135;23.675642163075413;7.284812973253974
85896;PMS5003;76442;52.412;16.940;2024-02-28T20:50:09;26.85498894013589;22.22481843321591;7.40827281107197
85896;PMS5003;76442;52.412;16.940;2024-02-28T21:05:10;24.42491383864012;19.72781502351702;6.57593834117234
85896;PMS5003;76442;52.412;16.940;2024-02-28T21:20:10;27.144068555865093;21.528054371893006;9.36002363995348
85896;PMS5003;76442;52.412;16.940;2024-02-28T21:35:10;28.824324739414102;22.31560624986898;4.6490846353893716
85896;PMS5003;76442;52.412;16.940;2024-02-28T21:50:10;26.60803142026501;21.85659723807483;9.50286836438036
85896;PMS5003;76442;52.412;16.940;2024-02-28T22:05:10;32.59211182946974;27.799154207488893;5.7515491463770125
85896;PMS5003;76442;52.412;16.940;2024-02-28T22:20:09;25.915129277243206;17.27675285149547;5.7589176171651575
85896;PMS5003;76442;52.412;16.940;2024-02-28T22:35:09;34.33209398391325;23.841731933273092;13.35136988263293
85896;PMS5003;76442;52.412;16.940;2024-02-28T22:50:09;25.079106258321513;20.2562012086443;5.787486059612657
85896;PMS5003;76442;52.412;16.940;2024-02-28T23:05:09;23.03048356800514;18.232466158004065;6.717224374001498
85896;PMS5003;76442;52.412;16.940;2024-02-28T23:20:09;22.098970478812493;17.29484646167934;6.72577362398641
85896;PMS5003;76442;52.412;16.940;2024-02-28T23:35:09;39.53918784579272;27.966742622633873;9.64370435263237
85896;PMS5003;76442;52.412;16.940;2024-02-28T23:50:09;24.979582842836148;19.215063725258577;3.8430127450517153
